createdAt,value
2022-09-20T00:01:11.808Z,7.92
2022-09-20T00:03:41.992Z,7.95
2022-09-20T00:06:12.680Z,7.95
2022-09-20T00:08:40.205Z,7.94
2022-09-20T00:11:10.816Z,7.94
2022-09-20T00:13:38.991Z,7.95
2022-09-20T00:16:10.123Z,7.95
2022-09-20T00:18:38.021Z,7.98
2022-09-20T00:21:05.800Z,7.99
2022-09-20T00:23:34.220Z,7.99
2022-09-20T00:26:03.514Z,7.98
2022-09-20T00:28:31.648Z,7.99
2022-09-20T00:30:59.064Z,8.00
2022-09-20T00:33:28.696Z,8.02
2022-09-20T00:35:58.225Z,8.02
2022-09-20T00:38:25.646Z,8.03
2022-09-20T00:40:53.249Z,8.04
2022-09-20T00:43:24.234Z,8.04
2022-09-20T00:45:51.720Z,8.03
2022-09-20T00:48:25.581Z,8.03
2022-09-20T00:50:56.211Z,8.00
2022-09-20T00:53:27.389Z,8.01
2022-09-20T00:55:57.892Z,8.03
2022-09-20T00:58:27.225Z,8.04
2022-09-20T01:00:56.658Z,8.06
2022-09-20T01:03:27.051Z,8.00
2022-09-20T01:05:55.587Z,7.97
2022-09-20T01:08:25.919Z,7.96
2022-09-20T01:10:53.756Z,7.92
2022-09-20T01:13:21.163Z,7.90
2022-09-20T01:15:49.340Z,7.89
2022-09-20T01:18:18.061Z,7.89
2022-09-20T01:20:45.944Z,7.88
2022-09-20T01:23:33.902Z,7.88
2022-09-20T01:26:25.917Z,7.91
2022-09-20T01:29:02.792Z,7.94
2022-09-20T01:31:33.617Z,7.96
2022-09-20T01:34:08.176Z,7.98
2022-09-20T01:36:38.311Z,8.03
2022-09-20T01:39:18.354Z,8.06
2022-09-20T01:41:48.742Z,8.10
2022-09-20T01:44:22.881Z,8.14
2022-09-20T01:47:11.497Z,8.16
2022-09-20T01:50:01.074Z,8.16
2022-09-20T01:52:49.828Z,8.19
2022-09-20T01:55:42.441Z,8.21
2022-09-20T01:58:28.694Z,8.21
2022-09-20T02:01:08.444Z,8.21
2022-09-20T02:04:10.363Z,8.22
2022-09-20T02:07:04.311Z,8.19
2022-09-20T02:09:47.511Z,8.21
2022-09-20T02:12:35.524Z,8.21
2022-09-20T02:15:41.821Z,8.20
2022-09-20T02:18:20.481Z,8.20
2022-09-20T02:20:54.904Z,8.19
2022-09-20T02:23:32.229Z,8.18
2022-09-20T02:26:33.827Z,8.17
2022-09-20T02:29:38.375Z,8.16
2022-09-20T02:32:24.457Z,8.17
2022-09-20T02:35:30.934Z,8.16
2022-09-20T02:38:17.560Z,8.16
2022-09-20T02:40:51.734Z,8.15
2022-09-20T02:43:31.830Z,8.11
2022-09-20T02:46:12.218Z,8.09
2022-09-20T02:48:45.573Z,8.09
2022-09-20T02:51:31.605Z,8.09
2022-09-20T02:54:13.320Z,8.07
2022-09-20T02:56:56.329Z,8.04
2022-09-20T02:59:33.681Z,8.05
2022-09-20T03:02:11.019Z,8.04
2022-09-20T03:04:59.008Z,8.04
2022-09-20T03:07:54.944Z,8.02
2022-09-20T03:10:48.615Z,8.03
2022-09-20T03:13:31.874Z,8.02
2022-09-20T03:16:09.138Z,8.06
2022-09-20T03:18:49.696Z,8.09
2022-09-20T03:21:26.707Z,8.08
2022-09-20T03:24:03.323Z,8.07
2022-09-20T03:27:00.782Z,8.11
2022-09-20T03:29:37.662Z,8.10
2022-09-20T03:32:31.826Z,8.11
2022-09-20T03:35:05.914Z,8.10
2022-09-20T03:37:46.084Z,8.12
2022-09-20T03:40:32.182Z,8.12
2022-09-20T03:43:12.450Z,8.12
2022-09-20T03:45:55.694Z,8.15
2022-09-20T03:48:37.041Z,8.16
2022-09-20T03:51:34.804Z,8.18
2022-09-20T03:54:25.858Z,8.16
2022-09-20T03:57:03.057Z,8.16
2022-09-20T03:59:50.604Z,8.13
2022-09-20T04:02:49.811Z,8.10
2022-09-20T04:05:24.246Z,8.11
2022-09-20T04:08:31.383Z,8.11
2022-09-20T04:11:25.677Z,8.11
2022-09-20T04:14:18.764Z,8.10
2022-09-20T04:16:57.836Z,8.09
2022-09-20T04:20:03.669Z,8.10
2022-09-20T04:22:41.855Z,8.12
2022-09-20T04:25:33.097Z,8.12
2022-09-20T04:28:19.275Z,8.13
2022-09-20T04:30:48.540Z,8.13
2022-09-20T04:33:28.270Z,8.15
2022-09-20T04:36:29.931Z,8.13
2022-09-20T04:39:04.571Z,8.12
2022-09-20T04:41:55.564Z,8.10
2022-09-20T04:44:38.899Z,8.10
2022-09-20T04:47:25.018Z,8.09
2022-09-20T04:50:06.735Z,8.12
2022-09-20T04:52:54.963Z,8.13
2022-09-20T04:55:49.540Z,8.17
2022-09-20T04:58:43.497Z,8.18
2022-09-20T05:01:19.138Z,8.19
2022-09-20T05:03:58.860Z,8.19
2022-09-20T05:06:38.371Z,8.19
2022-09-20T05:09:30.308Z,8.21
2022-09-20T05:12:38.182Z,8.22
2022-09-20T05:22:42.514Z,8.28
2022-09-20T05:59:27.092Z,8.78
2022-09-20T06:02:40.175Z,8.85
2022-09-20T06:09:37.784Z,8.96
2022-09-20T06:12:23.334Z,9.00
2022-09-20T06:15:06.356Z,8.96
2022-09-20T06:18:03.503Z,9.00
2022-09-20T06:20:51.898Z,9.00
2022-09-20T06:23:49.974Z,9.05
2022-09-20T06:26:46.755Z,9.11
2022-09-20T06:32:31.558Z,9.16
2022-09-20T06:35:20.106Z,9.20
2022-09-20T06:38:13.397Z,9.30
2022-09-20T06:41:10.133Z,9.36
2022-09-20T06:43:54.702Z,9.42
2022-09-20T06:46:34.391Z,9.52
2022-09-20T06:49:31.831Z,9.64
2022-09-20T06:55:06.040Z,9.82
2022-09-20T06:57:39.490Z,9.90
2022-09-20T07:00:22.577Z,10.00
2022-09-20T07:02:58.422Z,10.12
2022-09-20T07:05:38.378Z,10.19
2022-09-20T07:08:10.114Z,10.24
2022-09-20T07:10:45.907Z,10.25
2022-09-20T07:13:19.461Z,10.29
2022-09-20T07:15:50.788Z,10.31
2022-09-20T07:18:27.527Z,10.36
2022-09-20T07:20:58.875Z,10.37
2022-09-20T07:23:29.569Z,10.34
2022-09-20T07:26:00.473Z,10.29
2022-09-20T07:28:29.206Z,10.25
2022-09-20T07:31:01.334Z,10.21
2022-09-20T07:33:31.727Z,10.16
2022-09-20T07:36:01.263Z,10.19
2022-09-20T07:38:31.222Z,10.30
2022-09-20T07:54:09.816Z,12.82
2022-09-20T07:56:42.348Z,12.73
2022-09-20T07:59:14.781Z,12.72
2022-09-20T08:01:43.451Z,12.98
2022-09-20T08:04:11.263Z,13.39
2022-09-20T08:06:42.447Z,13.56
2022-09-20T08:09:11.509Z,13.46
2022-09-20T08:11:40.005Z,13.39
2022-09-20T08:14:11.167Z,13.31
2022-09-20T08:16:41.206Z,13.51
2022-09-20T08:19:18.820Z,13.70
2022-09-20T08:21:50.419Z,13.58
2022-09-20T08:24:19.673Z,13.24
2022-09-20T08:26:47.895Z,12.93
2022-09-20T08:31:49.133Z,12.93
2022-09-20T08:34:17.894Z,13.20
2022-09-20T08:37:01.510Z,13.22
2022-09-20T08:42:42.117Z,13.22
2022-09-20T08:45:22.344Z,13.14
2022-09-20T08:47:59.642Z,13.10
2022-09-20T08:50:31.313Z,13.16
2022-09-20T08:53:02.599Z,13.22
2022-09-20T08:55:36.494Z,13.14
2022-09-20T08:58:06.161Z,13.09
2022-09-20T09:00:33.936Z,13.13
2022-09-20T09:03:05.041Z,13.11
2022-09-20T09:05:47.231Z,13.16
2022-09-20T09:08:20.839Z,13.20
2022-09-20T09:10:53.664Z,13.25
2022-09-20T09:13:39.045Z,13.45
2022-09-20T09:16:24.657Z,13.60
2022-09-20T10:40:11.079Z,14.75
2022-09-20T10:43:05.946Z,15.21
2022-09-20T10:46:27.645Z,15.12
2022-09-20T10:48:51.484Z,14.95
2022-09-20T10:51:28.507Z,14.72
2022-09-20T10:54:11.754Z,14.38
2022-09-20T10:56:48.640Z,13.91
2022-09-20T10:59:32.130Z,13.44
2022-09-20T11:02:25.629Z,13.13
2022-09-20T11:05:30.294Z,12.89
2022-09-20T11:08:07.125Z,12.74
2022-09-20T11:10:53.098Z,12.62
2022-09-20T11:13:51.896Z,12.59
2022-09-20T11:16:41.515Z,12.52
2022-09-20T11:19:34.106Z,12.46
2022-09-20T11:22:11.288Z,12.29
2022-09-20T11:24:47.454Z,12.27
2022-09-20T11:27:24.798Z,12.26
2022-09-20T11:30:20.226Z,12.22
2022-09-20T11:32:52.514Z,12.20
2022-09-20T11:35:35.217Z,12.27
2022-09-20T11:38:15.992Z,12.28
2022-09-20T11:40:53.278Z,12.28
2022-09-20T11:43:22.082Z,12.31
2022-09-20T11:45:53.841Z,12.31
2022-09-20T11:48:24.489Z,12.23
2022-09-20T11:51:22.292Z,12.30
2022-09-20T11:54:16.033Z,12.31
2022-09-20T11:56:55.433Z,12.30
2022-09-20T11:59:29.376Z,12.35
2022-09-20T12:01:59.794Z,12.49
2022-09-20T12:04:33.347Z,12.60
2022-09-20T12:07:12.488Z,12.78
2022-09-20T12:09:42.543Z,12.88
2022-09-20T12:12:27.298Z,12.88
2022-09-20T12:14:57.924Z,12.87
2022-09-20T12:17:46.276Z,12.83
2022-09-20T12:20:34.775Z,12.84
2022-09-20T12:23:41.919Z,12.97
2022-09-20T12:26:13.712Z,13.16
2022-09-20T12:28:52.871Z,13.24
2022-09-20T12:31:33.777Z,13.33
2022-09-20T12:34:11.368Z,13.34
2022-09-20T12:36:47.024Z,13.35
2022-09-20T12:39:24.213Z,13.34
2022-09-20T12:42:01.635Z,13.28
2022-09-20T12:44:36.039Z,13.27
2022-09-20T12:47:09.321Z,13.35
2022-09-20T12:50:07.503Z,13.42
2022-09-20T12:52:50.452Z,13.50
2022-09-20T12:55:49.839Z,13.52
2022-09-20T12:58:22.604Z,13.55
2022-09-20T13:01:00.040Z,13.55
2022-09-20T13:03:35.927Z,13.50
2022-09-20T13:06:13.126Z,13.50
2022-09-20T13:09:09.979Z,13.48
2022-09-20T13:11:45.421Z,13.48
2022-09-20T13:14:23.074Z,13.48
2022-09-20T13:16:53.885Z,13.50
2022-09-20T13:19:35.578Z,13.49
2022-09-20T13:22:28.310Z,13.44
2022-09-20T13:24:59.773Z,13.32
2022-09-20T13:27:33.997Z,13.22
2022-09-20T13:30:23.633Z,13.20
2022-09-20T13:32:56.513Z,13.30
2022-09-20T13:35:27.544Z,13.45
2022-09-20T13:38:04.524Z,13.53
2022-09-20T13:40:39.936Z,13.60
2022-09-20T13:43:23.818Z,13.69
2022-09-20T13:45:43.813Z,13.78
2022-09-20T13:48:11.267Z,13.82
2022-09-20T13:50:44.895Z,13.83
2022-09-20T13:53:39.476Z,13.79
2022-09-20T13:55:47.903Z,13.77
2022-09-20T13:58:22.168Z,13.69
2022-09-20T14:00:54.726Z,13.67
2022-09-20T14:03:26.132Z,13.68
2022-09-20T14:06:02.697Z,13.70
2022-09-20T14:08:36.531Z,13.76
2022-09-20T14:11:10.403Z,13.82
2022-09-20T14:13:40.194Z,13.81
2022-09-20T14:16:08.711Z,13.88
2022-09-20T14:18:39.141Z,13.94
2022-09-20T14:21:10.719Z,14.00
2022-09-20T14:23:52.985Z,14.01
2022-09-20T14:26:23.624Z,13.99
2022-09-20T14:28:51.552Z,14.02
2022-09-20T14:31:25.375Z,13.96
2022-09-20T14:33:55.651Z,13.84
2022-09-20T14:36:25.807Z,13.75
2022-09-20T14:38:56.649Z,13.62
2022-09-20T14:41:28.365Z,13.50
2022-09-20T14:43:58.380Z,13.36
2022-09-20T14:46:33.380Z,13.22
2022-09-20T14:49:27.791Z,13.08
2022-09-20T14:52:28.471Z,13.01
2022-09-20T14:55:12.156Z,12.92
2022-09-20T14:57:41.668Z,12.78
2022-09-20T15:00:18.104Z,12.69
2022-09-20T15:02:47.747Z,12.59
2022-09-20T15:05:26.724Z,12.45
2022-09-20T15:07:56.345Z,12.35
2022-09-20T15:10:24.617Z,12.30
2022-09-20T15:12:52.324Z,12.26
2022-09-20T15:15:20.040Z,12.25
2022-09-20T15:17:50.083Z,12.23
2022-09-20T15:20:24.242Z,12.23
2022-09-20T15:22:52.020Z,12.22
2022-09-20T15:25:22.262Z,12.21
2022-09-20T15:27:53.380Z,12.19
2022-09-20T15:30:21.884Z,12.14
2022-09-20T15:32:54.002Z,12.12
2022-09-20T15:35:21.527Z,12.06
2022-09-20T15:37:50.915Z,12.00
2022-09-20T15:40:20.211Z,11.97
2022-09-20T15:42:47.973Z,11.92
2022-09-20T15:45:15.623Z,11.90
2022-09-20T15:47:46.301Z,11.84
2022-09-20T15:50:13.717Z,11.74
2022-09-20T15:52:41.839Z,11.67
2022-09-20T15:55:09.570Z,11.61
2022-09-20T15:57:38.970Z,11.57
2022-09-20T16:00:09.144Z,11.52
2022-09-20T16:02:37.353Z,11.49
2022-09-20T16:05:09.557Z,11.43
2022-09-20T16:07:36.886Z,11.38
2022-09-20T16:10:05.237Z,11.33
2022-09-20T16:12:32.825Z,11.30
2022-09-20T16:15:00.269Z,11.25
2022-09-20T16:17:46.126Z,11.18
2022-09-20T16:20:13.534Z,11.17
2022-09-20T16:22:41.863Z,11.15
2022-09-20T16:25:09.480Z,11.12
2022-09-20T16:27:37.087Z,11.09
2022-09-20T16:30:05.302Z,10.98
2022-09-20T16:32:32.872Z,10.91
2022-09-20T16:35:02.026Z,10.85
2022-09-20T16:37:31.336Z,10.79
2022-09-20T16:39:59.679Z,10.72
2022-09-20T16:42:27.120Z,10.66
2022-09-20T16:44:54.515Z,10.60
2022-09-20T16:47:23.621Z,10.55
2022-09-20T16:49:53.079Z,10.53
2022-09-20T16:52:22.649Z,10.50
2022-09-20T16:54:50.062Z,10.47
2022-09-20T16:57:18.265Z,10.45
2022-09-20T16:59:45.991Z,10.39
2022-09-20T17:02:14.154Z,10.36
2022-09-20T17:07:56.489Z,10.34
2022-09-20T17:10:53.922Z,10.30
2022-09-20T17:11:23.981Z,10.35
2022-09-20T17:13:34.217Z,10.24
2022-09-20T17:16:12.394Z,10.18
2022-09-20T17:18:45.599Z,10.14
2022-09-20T17:21:15.773Z,10.09
2022-09-20T17:24:00.253Z,10.06
2022-09-20T17:26:32.426Z,10.06
2022-09-20T17:29:01.535Z,10.06
2022-09-20T17:31:31.571Z,10.03
2022-09-20T17:34:07.612Z,10.01
2022-09-20T17:36:43.428Z,10.02
2022-09-20T17:39:12.971Z,10.01
2022-09-20T17:41:44.262Z,9.99
2022-09-20T17:44:11.974Z,10.01
2022-09-20T17:46:44.644Z,9.98
2022-09-20T17:49:14.633Z,9.98
2022-09-20T17:51:48.228Z,9.97
2022-09-20T17:54:17.947Z,9.97
2022-09-20T17:56:48.421Z,9.97
2022-09-20T17:59:17.308Z,9.98
2022-09-20T18:01:47.323Z,9.98
2022-09-20T18:04:15.351Z,9.99
2022-09-20T18:06:47.135Z,10.01
2022-09-20T18:09:18.299Z,9.97
2022-09-20T18:11:49.095Z,9.89
2022-09-20T18:14:19.836Z,9.86
2022-09-20T18:16:47.516Z,9.84
2022-09-20T18:19:15.595Z,9.85
2022-09-20T18:21:43.677Z,9.84
2022-09-20T18:24:11.592Z,9.84
2022-09-20T18:26:39.386Z,9.83
2022-09-20T18:29:12.847Z,9.83
2022-09-20T18:31:46.918Z,9.80
2022-09-20T18:34:17.726Z,9.77
2022-09-20T18:36:49.266Z,9.74
2022-09-20T18:39:26.654Z,9.68
2022-09-20T18:41:54.619Z,9.61
2022-09-20T18:44:23.190Z,9.55
2022-09-20T18:46:52.788Z,9.49
2022-09-20T18:49:21.353Z,9.43
2022-09-20T18:51:50.009Z,9.36
2022-09-20T18:54:18.580Z,9.29
2022-09-20T18:56:50.809Z,9.25
2022-09-20T18:59:24.620Z,9.20
2022-09-20T19:02:01.452Z,9.15
2022-09-20T19:04:52.736Z,9.08
2022-09-20T19:07:30.889Z,9.02
2022-09-20T19:10:08.533Z,8.98
2022-09-20T19:13:13.023Z,8.92
2022-09-20T19:16:05.882Z,8.85
2022-09-20T19:19:06.811Z,8.76
2022-09-20T19:21:47.069Z,8.67
2022-09-20T19:24:18.135Z,8.58
2022-09-20T19:26:46.554Z,8.52
2022-09-20T19:29:24.908Z,8.50
2022-09-20T19:31:55.184Z,8.44
2022-09-20T19:34:25.920Z,8.38
2022-09-20T19:37:18.288Z,8.30
2022-09-20T19:39:55.302Z,8.25
2022-09-20T19:42:33.414Z,8.16
2022-09-20T19:45:43.186Z,8.05
2022-09-20T19:48:23.323Z,7.97
2022-09-20T19:50:54.522Z,7.88
2022-09-20T19:53:25.366Z,7.83
2022-09-20T19:56:02.041Z,7.81
2022-09-20T19:58:29.957Z,7.76
2022-09-20T20:00:58.353Z,7.73
2022-09-20T20:03:28.786Z,7.70
2022-09-20T20:06:18.030Z,7.67
2022-09-20T20:08:57.302Z,7.63
2022-09-20T20:11:31.800Z,7.60
2022-09-20T20:14:12.235Z,7.57
2022-09-20T20:16:52.360Z,7.53
2022-09-20T20:19:40.038Z,7.49
2022-09-20T20:22:20.111Z,7.47
2022-09-20T20:24:53.497Z,7.42
2022-09-20T20:27:21.340Z,7.40
2022-09-20T20:29:49.054Z,7.33
2022-09-20T20:32:16.969Z,7.29
2022-09-20T20:34:44.737Z,7.26
2022-09-20T20:37:12.758Z,7.23
2022-09-20T20:39:40.473Z,7.18
2022-09-20T20:42:09.623Z,7.12
2022-09-20T20:44:37.461Z,7.05
2022-09-20T20:47:07.067Z,6.98
2022-09-20T20:49:35.515Z,6.93
2022-09-20T20:52:04.551Z,6.89
2022-09-20T20:54:34.738Z,6.85
2022-09-20T20:57:02.853Z,6.82
2022-09-20T20:59:30.561Z,6.80
2022-09-20T21:01:58.446Z,6.74
2022-09-20T21:04:26.914Z,6.69
2022-09-20T21:06:54.884Z,6.65
2022-09-20T21:09:22.982Z,6.62
2022-09-20T21:11:50.928Z,6.62
2022-09-20T21:14:18.381Z,6.57
2022-09-20T21:16:45.891Z,6.56
2022-09-20T21:19:15.255Z,6.53
2022-09-20T21:21:44.682Z,6.48
2022-09-20T21:24:17.036Z,6.48
2022-09-20T21:26:46.086Z,6.45
2022-09-20T21:29:15.744Z,6.43
2022-09-20T21:31:45.245Z,6.40
2022-09-20T21:34:14.759Z,6.37
2022-09-20T21:36:44.107Z,6.33
2022-09-20T21:39:11.738Z,6.30
2022-09-20T21:41:39.669Z,6.28
2022-09-20T21:44:09.392Z,6.26
2022-09-20T21:46:39.720Z,6.22
2022-09-20T21:49:09.246Z,6.18
2022-09-20T21:51:39.722Z,6.15
2022-09-20T21:54:07.358Z,6.14
2022-09-20T21:56:36.365Z,6.10
2022-09-20T21:59:06.621Z,6.08
2022-09-20T22:01:36.911Z,6.05
2022-09-20T22:04:06.512Z,6.02
2022-09-20T22:06:36.630Z,6.01
2022-09-20T22:09:07.801Z,5.98
2022-09-20T22:11:41.035Z,5.95
2022-09-20T22:14:09.892Z,5.94
2022-09-20T22:16:40.058Z,5.94
2022-09-20T22:19:09.327Z,5.94
2022-09-20T22:21:38.915Z,5.93
2022-09-20T22:24:08.594Z,5.90
2022-09-20T22:26:38.609Z,5.87
2022-09-20T22:29:06.352Z,5.83
2022-09-20T22:31:36.214Z,5.81
2022-09-20T22:34:05.888Z,5.80
2022-09-20T22:36:35.979Z,5.76
2022-09-20T22:39:06.844Z,5.72
2022-09-20T22:41:35.599Z,5.71
2022-09-20T22:44:03.917Z,5.72
2022-09-20T22:46:32.480Z,5.72
2022-09-20T22:49:00.143Z,5.71
2022-09-20T22:51:31.758Z,5.71
2022-09-20T22:54:00.475Z,5.72
2022-09-20T22:56:31.189Z,5.74
2022-09-20T22:59:02.202Z,5.79
2022-09-20T23:01:32.041Z,5.83
2022-09-20T23:04:03.437Z,5.86
2022-09-20T23:06:33.389Z,5.90
2022-09-20T23:09:01.873Z,5.95
2022-09-20T23:11:30.159Z,5.96
2022-09-20T23:13:59.628Z,6.00
2022-09-20T23:16:32.136Z,6.01
2022-09-20T23:19:00.822Z,6.04
2022-09-20T23:21:29.232Z,6.09
2022-09-20T23:23:59.190Z,6.13
2022-09-20T23:26:29.247Z,6.18
2022-09-20T23:28:58.772Z,6.20
2022-09-20T23:31:27.783Z,6.21
2022-09-20T23:33:57.338Z,6.23
2022-09-20T23:36:26.455Z,6.26
2022-09-20T23:38:54.061Z,6.26
2022-09-20T23:41:22.962Z,6.26
2022-09-20T23:43:50.551Z,6.28
2022-09-20T23:46:19.225Z,6.30
2022-09-20T23:48:46.948Z,6.33
2022-09-20T23:51:16.967Z,6.36
2022-09-20T23:53:44.779Z,6.38
2022-09-20T23:56:13.103Z,6.39
2022-09-20T23:58:42.514Z,6.41
